Time;durP1;ratioP1;P1;durP2;ratioP2;P2;SDS_P1;SDS_P2;PMS_P1;PMS_P2;Temp;Humidity;BMP_temperature;BMP_pressure;BME280_temperature;BME280_humidity;BME280_pressure;Samples;Min_cycle;Max_cycle;Signal;HPM_P1;HPM_P2
2021/12/04 00:02:26;;;;;;;13.00;8.93;;;1.70;99.90;;;;;;5114664;28;20838;-68
2021/12/04 00:04:54;;;;;;;16.40;10.83;;;1.70;99.90;;;;;;5116153;28;20488;-69
2021/12/04 00:07:22;;;;;;;14.13;10.60;;;1.70;99.90;;;;;;5118273;28;20841;-69
2021/12/04 00:09:50;;;;;;;18.73;9.70;;;1.70;99.90;;;;;;5118369;28;20449;-69
2021/12/04 00:12:18;;;;;;;11.93;9.10;;;1.80;99.90;;;;;;5117856;28;20452;-69
2021/12/04 00:14:45;;;;;;;14.73;9.97;;;1.80;99.90;;;;;;5117963;28;20483;-68
2021/12/04 00:17:14;;;;;;;13.50;9.20;;;1.80;99.90;;;;;;5117840;28;20923;-69
2021/12/04 00:19:40;;;;;;;12.27;9.70;;;1.80;99.90;;;;;;5117549;28;20838;-68
2021/12/04 00:22:07;;;;;;;16.00;10.03;;;1.80;99.90;;;;;;5117579;28;20452;-68
2021/12/04 00:24:34;;;;;;;16.67;9.97;;;1.80;99.90;;;;;;5117792;27;20537;-67
2021/12/04 00:27:01;;;;;;;11.83;8.83;;;1.90;99.90;;;;;;5117639;28;20617;-67
2021/12/04 00:29:28;;;;;;;16.37;9.93;;;2.00;99.90;;;;;;5117579;28;20453;-67
2021/12/04 00:31:58;;;;;;;12.53;9.30;;;2.00;99.90;;;;;;5117785;28;20466;-68
2021/12/04 00:34:28;;;;;;;20.70;9.50;;;2.00;99.90;;;;;;5117235;28;20865;-68
2021/12/04 00:50:35;;;;;;;11.60;8.30;;;2.00;99.90;;;;;;5116974;28;20424;-68
2021/12/04 00:53:02;;;;;;;11.90;9.10;;;2.10;99.90;;;;;;5117236;28;20509;-68
2021/12/04 00:55:29;;;;;;;11.67;8.83;;;2.00;99.90;;;;;;5117067;28;20781;-68
2021/12/04 00:57:56;;;;;;;13.40;9.53;;;2.10;99.90;;;;;;5117120;28;20488;-68
2021/12/04 01:00:25;;;;;;;12.10;8.57;;;2.10;99.90;;;;;;5117423;28;20507;-68
2021/12/04 01:02:52;;;;;;;14.23;10.00;;;2.00;99.90;;;;;;5116881;28;20559;-68
2021/12/04 01:05:18;;;;;;;15.93;9.53;;;2.00;99.90;;;;;;5117646;27;20476;-68
2021/12/04 01:07:46;;;;;;;12.20;9.27;;;2.00;99.90;;;;;;5116618;27;20467;-68
2021/12/04 01:10:13;;;;;;;13.50;9.40;;;2.00;99.90;;;;;;5116395;28;20453;-68
2021/12/04 01:12:40;;;;;;;12.00;9.70;;;2.10;99.90;;;;;;5116697;28;20533;-68
2021/12/04 01:15:09;;;;;;;12.53;9.80;;;2.10;99.90;;;;;;5116738;28;20467;-68
2021/12/04 01:17:35;;;;;;;11.60;8.93;;;2.10;99.90;;;;;;5116814;28;20457;-68
2021/12/04 01:20:03;;;;;;;15.07;9.60;;;2.10;99.90;;;;;;5116413;28;20488;-68
2021/12/04 01:22:33;;;;;;;11.40;9.10;;;2.10;99.90;;;;;;5116474;28;20453;-68
2021/12/04 01:25:01;;;;;;;11.20;9.90;;;2.10;99.90;;;;;;5116490;27;20785;-68
2021/12/04 01:27:28;;;;;;;11.67;8.00;;;2.10;99.90;;;;;;5116394;28;20495;-68
2021/12/04 01:29:55;;;;;;;14.20;10.03;;;2.20;99.90;;;;;;5116103;28;20939;-68
2021/12/04 01:32:21;;;;;;;12.00;9.37;;;2.20;99.90;;;;;;5116551;28;20452;-68
2021/12/04 01:34:48;;;;;;;14.30;10.17;;;2.20;99.90;;;;;;5116390;28;20461;-68
2021/12/04 01:37:15;;;;;;;13.10;9.60;;;2.20;99.90;;;;;;5116060;28;20534;-68
2021/12/04 01:39:41;;;;;;;12.57;9.50;;;2.20;99.90;;;;;;5116337;28;21028;-68
2021/12/04 01:42:10;;;;;;;15.07;9.50;;;2.20;99.90;;;;;;5116296;28;20453;-68
2021/12/04 01:44:36;;;;;;;13.27;9.23;;;2.20;99.90;;;;;;5115726;28;20456;-67
2021/12/04 01:47:12;;;;;;;14.53;10.10;;;2.20;99.90;;;;;;5116322;28;20468;-67
2021/12/04 01:49:39;;;;;;;14.27;9.70;;;2.20;99.90;;;;;;5116271;28;20432;-67
2021/12/04 01:52:07;;;;;;;10.53;8.93;;;2.20;99.90;;;;;;5115507;28;20452;-68
2021/12/04 01:54:34;;;;;;;13.30;9.87;;;2.20;99.90;;;;;;5116801;28;20789;-68
2021/12/04 01:57:01;;;;;;;13.20;9.73;;;2.20;99.90;;;;;;5116586;27;20491;-68
2021/12/04 01:59:30;;;;;;;15.23;10.50;;;2.20;99.90;;;;;;5116274;28;20544;-68
2021/12/04 02:01:58;;;;;;;18.23;10.67;;;2.20;99.90;;;;;;5116116;28;20460;-68
2021/12/04 02:04:25;;;;;;;13.17;10.13;;;2.20;99.90;;;;;;5116071;28;20456;-68
2021/12/04 02:06:52;;;;;;;13.63;9.67;;;2.10;99.90;;;;;;5115936;28;20467;-67
2021/12/04 02:09:18;;;;;;;14.07;10.60;;;2.10;99.90;;;;;;5116011;27;20784;-66
2021/12/04 02:11:45;;;;;;;16.87;10.77;;;2.10;99.90;;;;;;5115480;28;20464;-67
2021/12/04 02:14:13;;;;;;;15.20;11.03;;;2.10;99.90;;;;;;5115895;28;20777;-67
2021/12/04 02:16:41;;;;;;;13.70;10.30;;;2.10;99.90;;;;;;5115478;28;20510;-67
2021/12/04 02:19:08;;;;;;;13.83;9.83;;;2.20;99.90;;;;;;5115079;28;20630;-67
2021/12/04 02:21:36;;;;;;;11.90;10.10;;;2.20;99.90;;;;;;5115670;28;20537;-67
2021/12/04 02:24:03;;;;;;;13.00;9.67;;;2.20;99.90;;;;;;5115905;28;20467;-68
2021/12/04 02:26:30;;;;;;;13.77;11.10;;;2.20;99.90;;;;;;5114893;28;20456;-68
2021/12/04 02:28:57;;;;;;;15.60;10.23;;;2.20;99.90;;;;;;5114984;28;20480;-73
2021/12/04 02:31:24;;;;;;;14.20;10.97;;;2.20;99.90;;;;;;5115376;28;20505;-68
2021/12/04 02:33:51;;;;;;;16.30;10.70;;;2.20;99.90;;;;;;5115482;28;20456;-68
2021/12/04 02:36:18;;;;;;;15.57;10.27;;;2.30;99.90;;;;;;5114973;28;20901;-68
2021/12/04 02:38:50;;;;;;;12.87;10.53;;;2.20;99.90;;;;;;5115012;28;20460;-68
2021/12/04 02:41:18;;;;;;;13.80;10.37;;;2.20;99.90;;;;;;5115181;28;20788;-68
2021/12/04 02:43:45;;;;;;;15.57;10.40;;;2.20;99.90;;;;;;5116100;28;20470;-68
2021/12/04 02:46:12;;;;;;;14.33;11.00;;;2.20;99.90;;;;;;5115003;28;20926;-68
2021/12/04 02:48:39;;;;;;;16.10;10.40;;;2.20;99.90;;;;;;5115270;28;20465;-68
2021/12/04 02:51:06;;;;;;;17.93;11.00;;;2.20;99.90;;;;;;5114976;28;20460;-68
2021/12/04 02:53:33;;;;;;;18.53;11.43;;;2.30;99.90;;;;;;5115136;28;20460;-67
2021/12/04 02:56:01;;;;;;;17.50;11.37;;;2.20;99.90;;;;;;5114665;28;20456;-69
2021/12/04 02:58:27;;;;;;;16.43;11.50;;;2.20;99.90;;;;;;5114713;28;20462;-68
2021/12/04 03:00:54;;;;;;;15.67;10.60;;;2.20;99.90;;;;;;5114740;28;20519;-68
2021/12/04 03:03:21;;;;;;;14.63;10.60;;;2.20;99.90;;;;;;5115010;28;20456;-68
2021/12/04 03:05:50;;;;;;;12.33;10.87;;;2.20;99.90;;;;;;5114866;28;20521;-68
2021/12/04 03:08:18;;;;;;;13.97;10.37;;;2.20;99.90;;;;;;5114765;28;20484;-68
2021/12/04 03:10:47;;;;;;;15.40;12.10;;;2.20;99.90;;;;;;5114448;28;20885;-68
2021/12/04 03:13:17;;;;;;;13.43;11.23;;;2.20;99.90;;;;;;5114860;28;20562;-68
2021/12/04 03:15:46;;;;;;;18.23;11.67;;;2.20;99.90;;;;;;5114630;28;20441;-68
2021/12/04 03:18:13;;;;;;;16.37;10.30;;;2.30;99.90;;;;;;5114946;28;20456;-68
2021/12/04 03:20:42;;;;;;;17.33;12.80;;;2.30;99.90;;;;;;5115002;28;20817;-68
2021/12/04 03:23:15;;;;;;;16.23;10.90;;;2.30;99.90;;;;;;5114783;28;20449;-68
2021/12/04 03:25:44;;;;;;;13.90;11.97;;;2.30;99.90;;;;;;5114559;28;20490;-68
2021/12/04 03:28:13;;;;;;;17.30;11.80;;;2.30;99.90;;;;;;5115413;28;20487;-68
2021/12/04 03:30:46;;;;;;;16.67;11.80;;;2.30;99.90;;;;;;5114691;28;20460;-68
2021/12/04 03:41:25;;;;;;;14.10;11.40;;;2.30;99.90;;;;;;5118207;28;20895;-68
2021/12/04 03:43:51;;;;;;;16.40;14.37;;;2.30;99.90;;;;;;5118384;28;20460;-68
2021/12/04 03:46:19;;;;;;;18.63;12.37;;;2.40;99.90;;;;;;5119035;28;20513;-68
2021/12/04 03:48:55;;;;;;;19.47;11.97;;;2.40;99.90;;;;;;5118476;28;20456;-68
2021/12/04 03:51:25;;;;;;;16.53;12.30;;;2.30;99.90;;;;;;5118322;28;20469;-68
2021/12/04 03:53:52;;;;;;;18.30;12.43;;;2.40;99.90;;;;;;5118460;28;20463;-68
2021/12/04 03:56:23;;;;;;;17.57;11.23;;;2.30;99.90;;;;;;5118002;28;20476;-68
2021/12/04 03:58:50;;;;;;;19.70;11.83;;;2.40;99.90;;;;;;5118331;28;20456;-67
2021/12/04 04:01:17;;;;;;;16.67;11.70;;;2.40;99.90;;;;;;5117767;28;20480;-68
2021/12/04 04:03:45;;;;;;;17.47;12.97;;;2.40;99.90;;;;;;5118164;28;20453;-68
2021/12/04 04:06:12;;;;;;;18.43;13.60;;;2.40;99.90;;;;;;5117914;28;20448;-68
2021/12/04 04:08:40;;;;;;;16.70;11.67;;;2.40;99.90;;;;;;5118021;28;20452;-68
2021/12/04 04:11:08;;;;;;;18.37;11.80;;;2.50;99.90;;;;;;5118082;27;20463;-68
2021/12/04 04:13:36;;;;;;;15.30;11.50;;;2.50;99.90;;;;;;5118255;28;20487;-68
2021/12/04 04:16:04;;;;;;;16.87;13.57;;;2.50;99.90;;;;;;5117901;28;20460;-68
2021/12/04 04:18:32;;;;;;;17.57;11.60;;;2.50;99.90;;;;;;5117893;28;20781;-68
2021/12/04 04:21:01;;;;;;;14.07;11.33;;;2.50;99.90;;;;;;5118153;28;20753;-68
2021/12/04 04:23:28;;;;;;;15.43;12.33;;;2.50;99.90;;;;;;5119000;28;20452;-68
2021/12/04 04:25:55;;;;;;;15.50;11.73;;;2.50;99.90;;;;;;5119299;27;20468;-67
2021/12/04 04:28:22;;;;;;;14.50;10.63;;;2.50;99.90;;;;;;5118631;28;20464;-68
2021/12/04 04:30:49;;;;;;;17.93;11.43;;;2.60;99.90;;;;;;5118372;28;20460;-68
2021/12/04 04:33:16;;;;;;;18.27;12.37;;;2.60;99.90;;;;;;5118437;27;20467;-68
2021/12/04 04:35:45;;;;;;;16.70;11.90;;;2.50;99.90;;;;;;5117632;28;20981;-68
2021/12/04 04:38:23;;;;;;;16.70;12.27;;;2.50;99.90;;;;;;5118106;28;20519;-68
2021/12/04 04:57:39;;;;;;;16.87;12.93;;;2.50;99.90;;;;;;5116634;28;20479;-67
2021/12/04 05:00:19;;;;;;;16.53;12.73;;;2.50;99.90;;;;;;5117296;28;20456;-68
2021/12/04 05:11:19;;;;;;;20.27;13.63;;;2.40;99.90;;;;;;5104192;28;20451;-67
2021/12/04 05:13:46;;;;;;;18.30;14.10;;;2.40;99.90;;;;;;5117004;28;20436;-67
2021/12/04 05:16:14;;;;;;;21.07;14.13;;;2.40;99.90;;;;;;5116742;28;20506;-67
2021/12/04 05:18:50;;;;;;;19.93;14.10;;;2.50;99.90;;;;;;5116768;28;20448;-68
2021/12/04 05:21:17;;;;;;;22.97;14.50;;;2.50;99.90;;;;;;5116815;28;20866;-67
2021/12/04 05:23:45;;;;;;;18.57;14.03;;;2.40;99.90;;;;;;5116736;28;20916;-67
2021/12/04 05:26:16;;;;;;;21.37;13.87;;;2.40;99.90;;;;;;5116692;28;20448;-67
2021/12/04 05:28:46;;;;;;;23.27;14.30;;;2.40;99.90;;;;;;5116920;27;20441;-68
2021/12/04 05:31:14;;;;;;;21.43;15.33;;;2.40;99.90;;;;;;5116806;28;20464;-68
2021/12/04 05:33:41;;;;;;;21.23;15.30;;;2.50;99.90;;;;;;5116987;28;20452;-67
2021/12/04 05:36:08;;;;;;;17.93;13.40;;;2.50;99.90;;;;;;5116437;28;20463;-67
2021/12/04 05:38:36;;;;;;;18.67;13.27;;;2.40;99.90;;;;;;5116846;28;20463;-67
2021/12/04 05:41:03;;;;;;;18.67;13.70;;;2.50;99.90;;;;;;5116413;28;20480;-67
2021/12/04 05:43:31;;;;;;;19.67;13.30;;;2.50;99.90;;;;;;5116066;28;20463;-68
2021/12/04 05:46:04;;;;;;;17.20;12.50;;;2.40;99.90;;;;;;5116402;28;20452;-68
2021/12/04 05:48:36;;;;;;;17.00;12.50;;;2.40;99.90;;;;;;5116285;28;20441;-68
2021/12/04 05:54:05;;;;;;;19.90;13.67;;;2.50;99.90;;;;;;5116340;28;20560;-67
2021/12/04 05:56:34;;;;;;;18.23;13.37;;;2.50;99.90;;;;;;5116025;28;20778;-68
2021/12/04 05:59:02;;;;;;;25.00;15.70;;;2.50;99.90;;;;;;5116579;28;20540;-67
2021/12/04 06:01:31;;;;;;;20.40;14.00;;;2.40;99.90;;;;;;5115238;28;20491;-68
2021/12/04 06:03:59;;;;;;;19.30;13.73;;;2.40;99.90;;;;;;5116149;28;20463;-67
2021/12/04 06:06:26;;;;;;;22.90;15.60;;;2.30;99.90;;;;;;5116002;28;20783;-67
2021/12/04 06:08:52;;;;;;;19.20;14.00;;;2.30;99.90;;;;;;5116011;28;20463;-67
2021/12/04 06:11:19;;;;;;;20.07;14.90;;;2.30;99.90;;;;;;5115878;28;20764;-68
2021/12/04 06:13:47;;;;;;;23.47;13.63;;;2.30;99.90;;;;;;5115947;28;20785;-67
2021/12/04 06:16:15;;;;;;;19.53;13.80;;;2.30;99.90;;;;;;5115695;28;20919;-67
2021/12/04 06:18:46;;;;;;;21.57;14.20;;;2.30;99.90;;;;;;5116560;28;20478;-68
2021/12/04 06:23:57;;;;;;;18.33;12.47;;;2.30;99.90;;;;;;5115847;28;20769;-67
2021/12/04 06:26:24;;;;;;;16.50;12.20;;;2.20;99.90;;;;;;5115542;28;20472;-67
2021/12/04 06:28:51;;;;;;;15.50;11.90;;;2.20;99.90;;;;;;5115835;28;20746;-67
2021/12/04 06:31:18;;;;;;;14.37;10.97;;;2.20;99.90;;;;;;5115289;28;20906;-67
2021/12/04 06:33:46;;;;;;;15.00;11.60;;;2.30;99.90;;;;;;5115522;28;20555;-69
2021/12/04 06:36:13;;;;;;;18.20;12.60;;;2.30;99.90;;;;;;5115686;28;20493;-70
2021/12/04 06:38:40;;;;;;;15.47;11.37;;;2.30;99.90;;;;;;5115842;28;20452;-68
2021/12/04 06:41:07;;;;;;;18.73;10.93;;;2.20;99.90;;;;;;5114894;28;20496;-69
2021/12/04 06:43:35;;;;;;;13.80;10.80;;;2.30;99.90;;;;;;5115516;28;20467;-69
2021/12/04 06:46:04;;;;;;;16.20;12.47;;;2.30;99.90;;;;;;5115451;28;20529;-69
2021/12/04 06:48:38;;;;;;;15.83;11.30;;;2.30;99.90;;;;;;5116072;28;20570;-68
2021/12/04 06:51:13;;;;;;;16.27;11.70;;;2.30;99.90;;;;;;5114973;28;20893;-69
2021/12/04 06:53:43;;;;;;;17.90;11.63;;;2.30;99.90;;;;;;5115293;28;20539;-69
2021/12/04 06:56:11;;;;;;;19.67;12.27;;;2.30;99.90;;;;;;5114876;28;20488;-70
2021/12/04 06:58:39;;;;;;;16.53;12.80;;;2.30;99.90;;;;;;5114973;28;20440;-69
2021/12/04 07:01:10;;;;;;;15.00;12.07;;;2.30;99.90;;;;;;5114814;28;20565;-69
2021/12/04 07:03:37;;;;;;;16.70;11.90;;;2.30;99.90;;;;;;5115380;28;20444;-69
2021/12/04 07:06:04;;;;;;;15.97;12.10;;;2.30;99.90;;;;;;5114823;28;20486;-69
2021/12/04 07:08:32;;;;;;;15.77;11.47;;;2.40;99.90;;;;;;5114899;28;20464;-68
2021/12/04 07:10:59;;;;;;;17.30;11.40;;;2.30;99.90;;;;;;5114946;28;20529;-68
2021/12/04 07:13:26;;;;;;;14.50;10.73;;;2.40;99.90;;;;;;5115901;28;20464;-68
2021/12/04 07:16:01;;;;;;;13.47;11.40;;;2.40;99.90;;;;;;5119169;28;20912;-69
2021/12/04 07:18:28;;;;;;;15.03;11.60;;;2.40;99.90;;;;;;5119193;28;20448;-69
2021/12/04 07:20:57;;;;;;;16.70;12.13;;;2.40;99.90;;;;;;5118829;28;20598;-69
2021/12/04 07:23:24;;;;;;;15.73;12.07;;;2.40;99.90;;;;;;5119096;27;20456;-69
2021/12/04 07:25:52;;;;;;;16.70;12.00;;;2.50;99.90;;;;;;5119204;28;20452;-69
2021/12/04 07:28:19;;;;;;;19.50;12.80;;;2.50;99.90;;;;;;5119959;28;20452;-69
2021/12/04 07:30:46;;;;;;;13.40;10.90;;;2.50;99.90;;;;;;5119145;28;20448;-68
2021/12/04 07:33:14;;;;;;;17.00;11.77;;;2.50;99.90;;;;;;5118668;28;20464;-68
2021/12/04 07:35:41;;;;;;;15.83;11.10;;;2.40;99.90;;;;;;5119069;28;20462;-68
2021/12/04 07:38:10;;;;;;;11.70;10.50;;;2.40;99.90;;;;;;5118767;28;20456;-69
2021/12/04 07:40:37;;;;;;;15.60;11.00;;;2.40;99.90;;;;;;5118419;28;20452;-69
2021/12/04 07:43:05;;;;;;;14.27;10.90;;;2.40;99.90;;;;;;5118062;28;20967;-69
2021/12/04 07:45:32;;;;;;;13.03;10.40;;;2.40;99.90;;;;;;5118653;28;20789;-69
2021/12/04 07:47:58;;;;;;;13.17;9.77;;;2.40;99.90;;;;;;5118354;28;20452;-69
2021/12/04 07:50:26;;;;;;;12.00;9.90;;;2.40;99.90;;;;;;5118310;28;20478;-69
2021/12/04 07:52:52;;;;;;;12.87;10.40;;;2.40;99.90;;;;;;5118766;28;20548;-69
2021/12/04 07:55:19;;;;;;;14.17;11.40;;;2.50;99.90;;;;;;5118237;27;20452;-68
2021/12/04 07:57:46;;;;;;;12.97;9.27;;;2.50;99.90;;;;;;5117908;28;20491;-68
2021/12/04 08:00:17;;;;;;;12.30;9.90;;;2.60;99.90;;;;;;5118668;28;20452;-68
2021/12/04 08:02:44;;;;;;;17.43;9.57;;;2.50;99.90;;;;;;5119079;28;20529;-70
2021/12/04 08:05:11;;;;;;;9.93;8.30;;;2.60;99.90;;;;;;5118736;28;20460;-70
2021/12/04 08:07:39;;;;;;;11.70;8.73;;;2.60;99.90;;;;;;5118140;28;20456;-70
2021/12/04 08:10:09;;;;;;;11.40;9.57;;;2.60;99.90;;;;;;5118015;28;20460;-70
2021/12/04 08:12:37;;;;;;;13.20;8.60;;;2.60;99.90;;;;;;5118107;28;20456;-70
2021/12/04 08:15:04;;;;;;;11.40;9.60;;;2.60;99.90;;;;;;5118560;28;20672;-70
2021/12/04 08:17:33;;;;;;;9.90;7.83;;;2.50;99.90;;;;;;5118237;28;20884;-68
2021/12/04 08:19:59;;;;;;;10.27;8.43;;;2.60;99.90;;;;;;5118145;28;20652;-69
2021/12/04 08:22:26;;;;;;;11.43;8.10;;;2.60;99.90;;;;;;5117715;28;20505;-70
2021/12/04 08:24:53;;;;;;;10.80;8.40;;;2.70;99.90;;;;;;5117134;28;20468;-70
2021/12/04 08:27:20;;;;;;;14.23;9.40;;;2.70;99.90;;;;;;5117692;28;20524;-70
2021/12/04 08:29:47;;;;;;;11.10;8.10;;;2.70;99.90;;;;;;5117619;28;20475;-70
2021/12/04 08:32:14;;;;;;;9.73;8.40;;;2.70;99.90;;;;;;5117373;28;20916;-69
2021/12/04 08:34:42;;;;;;;10.67;9.03;;;2.80;99.90;;;;;;5117555;28;20452;-70
2021/12/04 08:37:09;;;;;;;12.73;8.17;;;2.80;99.90;;;;;;5117657;28;20466;-70
2021/12/04 08:39:35;;;;;;;11.20;8.83;;;2.80;99.90;;;;;;5117474;28;20460;-70
2021/12/04 08:42:02;;;;;;;12.80;8.13;;;2.80;99.90;;;;;;5118193;28;20510;-68
2021/12/04 08:44:30;;;;;;;8.83;7.60;;;2.80;99.90;;;;;;5117474;28;20784;-69
2021/12/04 08:46:57;;;;;;;11.20;8.73;;;2.80;99.90;;;;;;5117571;28;20788;-68
2021/12/04 08:49:24;;;;;;;12.20;8.57;;;2.80;99.90;;;;;;5118143;27;20820;-68
2021/12/04 08:51:52;;;;;;;11.00;7.93;;;2.80;99.90;;;;;;5117707;28;20475;-68
2021/12/04 08:54:19;;;;;;;13.03;8.00;;;2.90;99.90;;;;;;5117284;27;20463;-68
2021/12/04 08:56:46;;;;;;;11.43;8.50;;;2.80;99.90;;;;;;5117346;28;20484;-68
2021/12/04 08:59:12;;;;;;;13.60;10.20;;;2.90;99.90;;;;;;5116865;28;20460;-68
2021/12/04 09:01:41;;;;;;;13.73;9.77;;;2.90;99.90;;;;;;5117029;28;20480;-68
2021/12/04 09:04:17;;;;;;;11.60;9.00;;;3.00;99.90;;;;;;5117040;27;20456;-68
2021/12/04 09:06:43;;;;;;;10.60;8.73;;;3.00;99.90;;;;;;5117168;28;20863;-69
2021/12/04 09:09:14;;;;;;;12.27;9.03;;;3.00;99.90;;;;;;5117144;27;20475;-69
2021/12/04 09:11:44;;;;;;;11.70;9.93;;;3.00;99.90;;;;;;5116983;28;20476;-69
2021/12/04 09:14:12;;;;;;;10.57;8.63;;;3.00;99.90;;;;;;5116884;28;20502;-68
2021/12/04 09:16:39;;;;;;;11.47;8.47;;;3.10;99.90;;;;;;5116812;27;20475;-69
2021/12/04 09:19:06;;;;;;;16.03;9.63;;;3.10;99.90;;;;;;5116577;28;20461;-68
2021/12/04 09:21:35;;;;;;;13.30;9.57;;;3.10;99.90;;;;;;5116574;28;20489;-68
2021/12/04 09:24:06;;;;;;;9.87;8.73;;;3.10;99.90;;;;;;5116615;28;20469;-69
2021/12/04 09:26:47;;;;;;;13.37;9.73;;;3.20;99.90;;;;;;5116800;28;20758;-69
2021/12/04 09:29:30;;;;;;;14.23;10.50;;;3.10;99.90;;;;;;5116994;28;20463;-68
2021/12/04 09:32:23;;;;;;;12.80;9.83;;;3.10;99.90;;;;;;5116556;28;20557;-68
2021/12/04 10:02:36;;;;;;;17.53;11.77;;;2.90;99.90;;;;;;5115920;28;20688;-69
2021/12/04 10:05:34;;;;;;;17.47;12.73;;;3.00;99.90;;;;;;5115821;28;20441;-68
2021/12/04 10:14:00;;;;;;;16.47;12.40;;;3.00;99.90;;;;;;5115725;28;20484;-68
2021/12/04 10:19:21;;;;;;;20.13;13.20;;;3.00;99.90;;;;;;5097832;28;20441;-68
2021/12/04 10:22:10;;;;;;;17.47;12.17;;;3.10;99.90;;;;;;5115113;28;20461;-67
2021/12/04 10:24:56;;;;;;;15.07;12.07;;;3.10;99.90;;;;;;5115675;28;20454;-68
2021/12/04 10:33:15;;;;;;;17.17;11.60;;;3.20;99.90;;;;;;5115346;28;20504;-68
2021/12/04 10:35:42;;;;;;;15.47;12.33;;;3.20;99.90;;;;;;5116026;28;20809;-68
2021/12/04 10:38:16;;;;;;;15.40;11.90;;;3.20;99.90;;;;;;5115542;28;20463;-68
2021/12/04 10:40:45;;;;;;;14.80;12.50;;;3.20;99.90;;;;;;5116100;28;20436;-68
2021/12/04 10:43:16;;;;;;;14.20;11.20;;;3.10;99.90;;;;;;5115356;28;20468;-70
2021/12/04 10:45:45;;;;;;;16.30;12.60;;;3.10;99.90;;;;;;5116101;28;20483;-67
2021/12/04 10:48:18;;;;;;;18.40;12.33;;;3.10;99.90;;;;;;5116065;28;20528;-68
2021/12/04 10:50:51;;;;;;;15.90;12.10;;;3.00;99.90;;;;;;5116340;28;20531;-67
2021/12/04 10:53:21;;;;;;;16.37;11.90;;;3.00;99.90;;;;;;5116490;28;20433;-67
2021/12/04 10:55:52;;;;;;;17.10;12.37;;;3.00;99.90;;;;;;5116128;28;20453;-68
2021/12/04 10:58:59;;;;;;;16.27;11.87;;;2.90;99.90;;;;;;5115082;28;20531;-68
2021/12/04 11:01:47;;;;;;;13.90;11.30;;;2.90;99.90;;;;;;5115189;28;20462;-66
2021/12/04 11:04:25;;;;;;;15.23;11.47;;;2.80;99.90;;;;;;5115078;28;20560;-69
2021/12/04 11:07:17;;;;;;;16.70;12.37;;;2.80;99.90;;;;;;5114918;28;20827;-67
2021/12/04 11:26:49;;;;;;;18.93;11.97;;;3.20;99.90;;;;;;5094074;28;20748;-68
2021/12/04 11:35:33;;;;;;;13.33;10.03;;;3.30;99.90;;;;;;5114970;28;20420;-67
2021/12/04 11:38:24;;;;;;;12.93;11.10;;;3.30;99.90;;;;;;5115061;28;20486;-67
2021/12/04 11:43:41;;;;;;;16.23;11.40;;;3.30;99.90;;;;;;5105674;28;20472;-68
2021/12/04 11:46:19;;;;;;;13.93;10.50;;;3.20;99.90;;;;;;5114834;28;20455;-69
2021/12/04 11:48:47;;;;;;;15.57;11.40;;;3.30;99.90;;;;;;5115496;28;20444;-68
2021/12/04 11:51:18;;;;;;;15.10;12.00;;;3.30;99.90;;;;;;5114247;28;20463;-69
2021/12/04 11:53:47;;;;;;;16.63;12.10;;;3.40;99.90;;;;;;5115033;28;20448;-68
2021/12/04 11:56:16;;;;;;;17.47;11.73;;;3.30;99.90;;;;;;5115834;28;20476;-68
2021/12/04 11:58:45;;;;;;;14.90;11.20;;;3.40;99.90;;;;;;5114691;28;20903;-68
2021/12/04 12:01:23;;;;;;;16.30;12.43;;;3.50;99.90;;;;;;5116829;28;20448;-68
2021/12/04 12:03:53;;;;;;;15.30;12.50;;;3.50;99.90;;;;;;5118558;27;20468;-69
2021/12/04 12:06:31;;;;;;;18.47;12.80;;;3.50;99.90;;;;;;5118417;27;20457;-67
2021/12/04 12:09:07;;;;;;;20.67;13.07;;;3.50;99.90;;;;;;5118766;28;20447;-69
2021/12/04 12:11:34;;;;;;;15.33;12.17;;;3.50;99.90;;;;;;5118422;28;20467;-68
2021/12/04 12:14:06;;;;;;;18.67;13.10;;;3.50;99.90;;;;;;5117837;28;20804;-69
2021/12/04 12:16:37;;;;;;;16.93;12.67;;;3.60;99.90;;;;;;5118662;28;20603;-67
2021/12/04 12:19:09;;;;;;;16.83;13.07;;;3.60;99.90;;;;;;5117863;28;20906;-68
2021/12/04 12:21:51;;;;;;;16.40;12.90;;;3.70;99.90;;;;;;5118263;28;20447;-67
2021/12/04 12:27:29;;;;;;;18.73;13.87;;;3.80;99.90;;;;;;5117925;28;20447;-68
2021/12/04 12:33:00;;;;;;;17.93;13.20;;;3.90;99.90;;;;;;5117947;28;20419;-68
2021/12/04 12:38:17;;;;;;;13.87;11.20;;;4.00;99.90;;;;;;5117404;28;20427;-69
2021/12/04 12:40:57;;;;;;;14.53;11.30;;;4.10;99.90;;;;;;5118252;28;20452;-68
2021/12/04 12:43:24;;;;;;;16.07;12.63;;;4.10;99.90;;;;;;5117508;28;20503;-68
2021/12/04 12:45:56;;;;;;;15.53;12.17;;;4.00;99.90;;;;;;5117362;28;20464;-68
2021/12/04 12:48:23;;;;;;;16.47;13.10;;;4.00;99.90;;;;;;5117395;28;20457;-68
2021/12/04 12:50:50;;;;;;;16.63;12.00;;;4.00;99.90;;;;;;5117224;28;20566;-69
2021/12/04 12:53:19;;;;;;;17.30;12.53;;;3.90;99.90;;;;;;5117360;28;20542;-68
2021/12/04 12:55:53;;;;;;;17.30;13.37;;;4.00;99.90;;;;;;5117220;28;20912;-68
2021/12/04 12:58:24;;;;;;;13.37;10.20;;;3.90;99.90;;;;;;5117607;28;20429;-68
2021/12/04 13:12:04;;;;;;;13.33;9.93;;;3.70;99.90;;;;;;5117313;28;20572;-69
2021/12/04 13:14:35;;;;;;;13.33;10.00;;;3.60;99.90;;;;;;5118050;28;20435;-69
2021/12/04 13:17:07;;;;;;;14.80;10.60;;;3.60;99.90;;;;;;5117716;28;20460;-69
2021/12/04 13:19:36;;;;;;;15.10;10.80;;;3.70;99.90;;;;;;5117630;28;20506;-69
2021/12/04 13:22:06;;;;;;;12.43;11.00;;;3.60;99.90;;;;;;5117324;28;20892;-70
2021/12/04 13:24:35;;;;;;;12.43;10.17;;;3.70;99.90;;;;;;5117009;28;20444;-69
2021/12/04 13:29:39;;;;;;;13.20;10.33;;;3.60;99.90;;;;;;5117966;28;20663;-69
2021/12/04 13:32:07;;;;;;;13.40;10.30;;;3.60;99.90;;;;;;5117223;28;20471;-70
2021/12/04 13:34:35;;;;;;;10.93;8.90;;;3.60;99.90;;;;;;5117226;28;20452;-70
2021/12/04 13:37:02;;;;;;;11.27;8.77;;;3.70;99.90;;;;;;5116772;28;20459;-70
2021/12/04 13:39:29;;;;;;;12.30;9.67;;;3.60;99.90;;;;;;5116483;28;20919;-69
2021/12/04 13:41:56;;;;;;;11.67;9.63;;;3.60;99.90;;;;;;5116646;28;20535;-68
2021/12/04 13:44:27;;;;;;;10.43;8.63;;;3.60;99.90;;;;;;5116498;28;20506;-69
2021/12/04 13:46:59;;;;;;;9.33;8.27;;;3.70;99.90;;;;;;5116900;28;20804;-68
2021/12/04 13:49:33;;;;;;;10.43;9.30;;;3.70;99.90;;;;;;5117343;28;20440;-69
2021/12/04 13:52:02;;;;;;;10.50;8.33;;;3.70;99.90;;;;;;5116864;28;20451;-69
2021/12/04 13:54:32;;;;;;;11.87;8.80;;;3.70;99.90;;;;;;5116233;28;20760;-70
2021/12/04 13:56:58;;;;;;;11.30;9.33;;;3.70;99.90;;;;;;5115911;28;20479;-70
2021/12/04 13:59:28;;;;;;;14.70;11.23;;;3.70;99.90;;;;;;5116206;28;20904;-69
2021/12/04 14:01:56;;;;;;;11.60;9.67;;;3.80;99.90;;;;;;5116706;28;20452;-69
2021/12/04 14:04:24;;;;;;;12.97;10.53;;;3.90;99.90;;;;;;5116292;28;20476;-69
2021/12/04 14:06:53;;;;;;;11.07;8.87;;;3.90;99.90;;;;;;5115650;28;20456;-70
2021/12/04 14:09:21;;;;;;;12.43;9.23;;;4.00;99.90;;;;;;5116193;28;20920;-70
2021/12/04 14:11:49;;;;;;;12.50;9.43;;;4.00;99.90;;;;;;5115605;27;20456;-70
2021/12/04 14:14:18;;;;;;;16.20;12.17;;;4.10;99.90;;;;;;5115921;28;20476;-69
2021/12/04 14:16:51;;;;;;;13.07;10.23;;;4.10;99.90;;;;;;5115857;28;20460;-70
2021/12/04 14:19:20;;;;;;;15.60;10.17;;;4.10;99.90;;;;;;5116406;28;20436;-70
2021/12/04 14:21:55;;;;;;;15.97;11.13;;;4.00;99.90;;;;;;5115298;28;20920;-71
2021/12/04 14:24:31;;;;;;;14.50;11.10;;;4.00;99.90;;;;;;5115142;28;20487;-70
2021/12/04 14:27:00;;;;;;;15.80;11.50;;;4.10;99.90;;;;;;5115752;28;20447;-70
2021/12/04 14:29:32;;;;;;;17.50;11.93;;;4.00;99.90;;;;;;5115966;28;20471;-70
2021/12/04 14:32:01;;;;;;;15.03;11.30;;;4.10;99.90;;;;;;5116107;28;20436;-69
2021/12/04 14:34:30;;;;;;;15.20;12.03;;;4.10;99.90;;;;;;5115720;28;20462;-70
2021/12/04 14:37:02;;;;;;;15.00;11.70;;;4.00;99.90;;;;;;5115448;28;20472;-70
2021/12/04 14:39:29;;;;;;;15.37;11.90;;;4.10;99.90;;;;;;5115080;28;20468;-69
2021/12/04 14:41:56;;;;;;;17.30;11.80;;;4.10;99.90;;;;;;5115201;28;20559;-69
2021/12/04 14:44:23;;;;;;;16.90;11.67;;;4.30;99.90;;;;;;5115409;28;20480;-70
2021/12/04 14:46:50;;;;;;;13.97;10.70;;;4.30;99.90;;;;;;5115533;28;20564;-69
2021/12/04 14:49:18;;;;;;;15.70;12.20;;;4.30;99.90;;;;;;5115139;28;20574;-69
2021/12/04 14:51:46;;;;;;;19.87;13.47;;;4.20;99.90;;;;;;5115478;28;20885;-69
2021/12/04 14:54:13;;;;;;;16.40;11.90;;;4.30;99.90;;;;;;5115312;28;20452;-69
2021/12/04 14:56:40;;;;;;;17.00;12.23;;;4.20;99.90;;;;;;5114522;28;20624;-69
2021/12/04 14:59:15;;;;;;;18.20;11.90;;;4.20;99.90;;;;;;5115889;28;20460;-70
2021/12/04 15:01:42;;;;;;;16.63;12.77;;;4.30;99.90;;;;;;5115061;28;20747;-70
2021/12/04 15:04:09;;;;;;;18.03;12.50;;;4.30;99.90;;;;;;5115179;28;20487;-69
2021/12/04 15:06:39;;;;;;;16.53;13.00;;;4.30;99.90;;;;;;5115254;28;20503;-70
2021/12/04 15:09:10;;;;;;;19.10;13.87;;;4.30;99.90;;;;;;5115063;28;20456;-70
2021/12/04 15:11:38;;;;;;;20.10;13.97;;;4.30;99.90;;;;;;5115031;28;20814;-70
2021/12/04 15:14:09;;;;;;;18.20;14.17;;;4.30;99.90;;;;;;5114954;28;20448;-70
2021/12/04 15:16:39;;;;;;;19.40;14.93;;;4.30;99.90;;;;;;5114629;28;20452;-68